sensor_id;sensor_type;location;lat;lon;timestamp;P1;durP1;ratioP1;P2;durP2;ratioP2
11269;SDS011;5692;48.956;9.200;2022-08-05T00:01:00;229.93;;;218.93;;
11269;SDS011;5692;48.956;9.200;2022-08-05T00:03:27;258.77;;;246.40;;
11269;SDS011;5692;48.956;9.200;2022-08-05T00:05:53;235.57;;;224.30;;
11269;SDS011;5692;48.956;9.200;2022-08-05T00:08:19;254.13;;;241.97;;
11269;SDS011;5692;48.956;9.200;2022-08-05T00:10:45;233.80;;;222.60;;
11269;SDS011;5692;48.956;9.200;2022-08-05T00:13:11;235.30;;;224.03;;
11269;SDS011;5692;48.956;9.200;2022-08-05T00:15:37;252.83;;;240.73;;
11269;SDS011;5692;48.956;9.200;2022-08-05T00:18:03;252.23;;;240.17;;
11269;SDS011;5692;48.956;9.200;2022-08-05T00:20:29;244.50;;;232.80;;
11269;SDS011;5692;48.956;9.200;2022-08-05T00:22:55;245.27;;;233.53;;
11269;SDS011;5692;48.956;9.200;2022-08-05T00:25:21;252.03;;;239.97;;
11269;SDS011;5692;48.956;9.200;2022-08-05T00:27:47;254.60;;;242.43;;
11269;SDS011;5692;48.956;9.200;2022-08-05T00:30:13;250.90;;;238.90;;
11269;SDS011;5692;48.956;9.200;2022-08-05T00:32:39;253.07;;;240.97;;
11269;SDS011;5692;48.956;9.200;2022-08-05T00:35:05;241.13;;;229.60;;
11269;SDS011;5692;48.956;9.200;2022-08-05T00:37:31;227.47;;;216.60;;
11269;SDS011;5692;48.956;9.200;2022-08-05T00:39:57;254.60;;;242.43;;
11269;SDS011;5692;48.956;9.200;2022-08-05T00:42:33;242.67;;;231.07;;
11269;SDS011;5692;48.956;9.200;2022-08-05T00:45:00;241.23;;;229.73;;
11269;SDS011;5692;48.956;9.200;2022-08-05T00:47:26;250.13;;;238.17;;
11269;SDS011;5692;48.956;9.200;2022-08-05T00:49:53;232.07;;;220.97;;
11269;SDS011;5692;48.956;9.200;2022-08-05T00:52:19;261.13;;;248.63;;
11269;SDS011;5692;48.956;9.200;2022-08-05T00:54:45;256.83;;;244.57;;
11269;SDS011;5692;48.956;9.200;2022-08-05T00:57:11;255.15;;;242.95;;
11269;SDS011;5692;48.956;9.200;2022-08-05T00:59:37;232.27;;;221.17;;
11269;SDS011;5692;48.956;9.200;2022-08-05T01:02:03;244.93;;;233.20;;
11269;SDS011;5692;48.956;9.200;2022-08-05T01:04:29;238.90;;;227.48;;
11269;SDS011;5692;48.956;9.200;2022-08-05T01:06:55;237.65;;;226.27;;
11269;SDS011;5692;48.956;9.200;2022-08-05T01:09:22;226.25;;;215.45;;
11269;SDS011;5692;48.956;9.200;2022-08-05T01:11:49;236.27;;;224.97;;
11269;SDS011;5692;48.956;9.200;2022-08-05T01:14:25;222.90;;;212.23;;
11269;SDS011;5692;48.956;9.200;2022-08-05T01:27:12;223.15;;;212.45;;
11269;SDS011;5692;48.956;9.200;2022-08-05T01:29:44;222.82;;;212.15;;
11269;SDS011;5692;48.956;9.200;2022-08-05T01:32:12;229.15;;;218.18;;
11269;SDS011;5692;48.956;9.200;2022-08-05T01:34:44;219.57;;;209.07;;
11269;SDS011;5692;48.956;9.200;2022-08-05T01:37:16;232.27;;;221.18;;
11269;SDS011;5692;48.956;9.200;2022-08-05T01:39:43;238.98;;;227.55;;
11269;SDS011;5692;48.956;9.200;2022-08-05T01:42:11;227.25;;;216.38;;
11269;SDS011;5692;48.956;9.200;2022-08-05T01:44:38;232.70;;;221.57;;
11269;SDS011;5692;48.956;9.200;2022-08-05T01:47:04;217.55;;;207.15;;
11269;SDS011;5692;48.956;9.200;2022-08-05T01:49:31;232.43;;;221.30;;
11269;SDS011;5692;48.956;9.200;2022-08-05T01:51:58;218.15;;;207.75;;
11269;SDS011;5692;48.956;9.200;2022-08-05T01:54:27;229.93;;;218.93;;
11269;SDS011;5692;48.956;9.200;2022-08-05T01:56:54;230.35;;;219.35;;
11269;SDS011;5692;48.956;9.200;2022-08-05T01:59:21;226.40;;;215.60;;
11269;SDS011;5692;48.956;9.200;2022-08-05T02:01:48;221.60;;;210.98;;
11269;SDS011;5692;48.956;9.200;2022-08-05T02:04:18;224.93;;;214.15;;
11269;SDS011;5692;48.956;9.200;2022-08-05T02:06:45;219.60;;;209.10;;
11269;SDS011;5692;48.956;9.200;2022-08-05T02:09:11;232.10;;;221.00;;
11269;SDS011;5692;48.956;9.200;2022-08-05T02:11:46;237.93;;;226.52;;
11269;SDS011;5692;48.956;9.200;2022-08-05T02:14:14;233.52;;;222.35;;
11269;SDS011;5692;48.956;9.200;2022-08-05T02:16:49;250.85;;;238.88;;
11269;SDS011;5692;48.956;9.200;2022-08-05T02:21:52;244.15;;;232.45;;
11269;SDS011;5692;48.956;9.200;2022-08-05T02:24:20;237.50;;;226.10;;
11269;SDS011;5692;48.956;9.200;2022-08-05T02:26:51;226.98;;;216.10;;
11269;SDS011;5692;48.956;9.200;2022-08-05T02:29:20;227.13;;;216.25;;
11269;SDS011;5692;48.956;9.200;2022-08-05T02:31:47;225.10;;;214.30;;
11269;SDS011;5692;48.956;9.200;2022-08-05T02:34:14;246.25;;;234.48;;
11269;SDS011;5692;48.956;9.200;2022-08-05T02:36:42;241.10;;;229.60;;
11269;SDS011;5692;48.956;9.200;2022-08-05T02:39:11;235.20;;;223.95;;
11269;SDS011;5692;48.956;9.200;2022-08-05T02:41:37;221.40;;;210.80;;
11269;SDS011;5692;48.956;9.200;2022-08-05T02:44:07;240.23;;;228.73;;
11269;SDS011;5692;48.956;9.200;2022-08-05T02:46:35;246.57;;;234.77;;
11269;SDS011;5692;48.956;9.200;2022-08-05T02:49:01;229.88;;;218.88;;
11269;SDS011;5692;48.956;9.200;2022-08-05T02:51:27;240.40;;;228.90;;
11269;SDS011;5692;48.956;9.200;2022-08-05T02:53:54;230.68;;;219.65;;
11269;SDS011;5692;48.956;9.200;2022-08-05T02:56:20;232.15;;;221.05;;
11269;SDS011;5692;48.956;9.200;2022-08-05T02:58:47;239.75;;;228.30;;
11269;SDS011;5692;48.956;9.200;2022-08-05T03:01:18;234.15;;;222.98;;
11269;SDS011;5692;48.956;9.200;2022-08-05T03:03:46;227.02;;;216.13;;
11269;SDS011;5692;48.956;9.200;2022-08-05T03:06:13;230.98;;;219.93;;
11269;SDS011;5692;48.956;9.200;2022-08-05T03:08:40;224.75;;;214.00;;
11269;SDS011;5692;48.956;9.200;2022-08-05T03:11:20;231.27;;;220.20;;
11269;SDS011;5692;48.956;9.200;2022-08-05T03:13:46;242.15;;;230.57;;
11269;SDS011;5692;48.956;9.200;2022-08-05T03:16:12;242.25;;;230.65;;
11269;SDS011;5692;48.956;9.200;2022-08-05T03:18:38;252.02;;;239.98;;
11269;SDS011;5692;48.956;9.200;2022-08-05T03:21:04;254.43;;;242.27;;
11269;SDS011;5692;48.956;9.200;2022-08-05T03:23:31;233.98;;;222.77;;
11269;SDS011;5692;48.956;9.200;2022-08-05T03:25:57;224.38;;;213.65;;
11269;SDS011;5692;48.956;9.200;2022-08-05T03:28:24;232.27;;;221.15;;
11269;SDS011;5692;48.956;9.200;2022-08-05T03:30:50;224.00;;;213.27;;
11269;SDS011;5692;48.956;9.200;2022-08-05T03:33:16;240.10;;;228.60;;
11269;SDS011;5692;48.956;9.200;2022-08-05T03:35:46;236.40;;;225.10;;
11269;SDS011;5692;48.956;9.200;2022-08-05T03:38:15;241.70;;;230.15;;
11269;SDS011;5692;48.956;9.200;2022-08-05T03:40:42;242.40;;;230.80;;
11269;SDS011;5692;48.956;9.200;2022-08-05T03:43:08;223.48;;;212.77;;
11269;SDS011;5692;48.956;9.200;2022-08-05T03:45:34;225.83;;;215.03;;
11269;SDS011;5692;48.956;9.200;2022-08-05T03:48:00;222.02;;;211.40;;
11269;SDS011;5692;48.956;9.200;2022-08-05T03:50:27;221.20;;;210.60;;
11269;SDS011;5692;48.956;9.200;2022-08-05T03:53:07;222.18;;;211.57;;
11269;SDS011;5692;48.956;9.200;2022-08-05T03:55:36;225.23;;;214.43;;
11269;SDS011;5692;48.956;9.200;2022-08-05T03:58:04;223.20;;;212.52;;
11269;SDS011;5692;48.956;9.200;2022-08-05T04:00:34;231.15;;;220.05;;
11269;SDS011;5692;48.956;9.200;2022-08-05T04:03:01;224.93;;;214.18;;
11269;SDS011;5692;48.956;9.200;2022-08-05T04:05:31;223.30;;;212.60;;
11269;SDS011;5692;48.956;9.200;2022-08-05T04:07:58;220.63;;;210.05;;
11269;SDS011;5692;48.956;9.200;2022-08-05T04:10:27;203.90;;;194.10;;
11269;SDS011;5692;48.956;9.200;2022-08-05T04:12:54;224.27;;;213.55;;
11269;SDS011;5692;48.956;9.200;2022-08-05T04:15:20;222.18;;;211.57;;
11269;SDS011;5692;48.956;9.200;2022-08-05T04:17:46;196.07;;;186.68;;
11269;SDS011;5692;48.956;9.200;2022-08-05T04:20:16;227.48;;;216.60;;
11269;SDS011;5692;48.956;9.200;2022-08-05T04:22:42;211.85;;;201.70;;
11269;SDS011;5692;48.956;9.200;2022-08-05T04:25:08;219.70;;;209.20;;
11269;SDS011;5692;48.956;9.200;2022-08-05T04:27:34;218.10;;;207.68;;
11269;SDS011;5692;48.956;9.200;2022-08-05T04:30:00;227.25;;;216.38;;
11269;SDS011;5692;48.956;9.200;2022-08-05T04:32:26;185.20;;;176.33;;
11269;SDS011;5692;48.956;9.200;2022-08-05T04:34:52;210.73;;;200.63;;
11269;SDS011;5692;48.956;9.200;2022-08-05T04:37:18;215.77;;;205.47;;
11269;SDS011;5692;48.956;9.200;2022-08-05T04:39:44;226.20;;;215.37;;
11269;SDS011;5692;48.956;9.200;2022-08-05T04:42:10;222.03;;;211.40;;
11269;SDS011;5692;48.956;9.200;2022-08-05T04:44:36;213.07;;;202.87;;
11269;SDS011;5692;48.956;9.200;2022-08-05T04:47:03;211.10;;;201.00;;
11269;SDS011;5692;48.956;9.200;2022-08-05T04:49:29;222.10;;;211.48;;
11269;SDS011;5692;48.956;9.200;2022-08-05T04:51:55;217.43;;;207.00;;
11269;SDS011;5692;48.956;9.200;2022-08-05T04:54:21;204.75;;;194.95;;
11269;SDS011;5692;48.956;9.200;2022-08-05T04:56:50;207.27;;;197.38;;
11269;SDS011;5692;48.956;9.200;2022-08-05T04:59:16;205.05;;;195.23;;
11269;SDS011;5692;48.956;9.200;2022-08-05T05:01:44;216.43;;;206.07;;
11269;SDS011;5692;48.956;9.200;2022-08-05T05:04:10;223.20;;;212.50;;
11269;SDS011;5692;48.956;9.200;2022-08-05T05:06:36;199.43;;;189.90;;
11269;SDS011;5692;48.956;9.200;2022-08-05T05:09:02;217.02;;;206.65;;
11269;SDS011;5692;48.956;9.200;2022-08-05T05:11:28;214.02;;;203.77;;
11269;SDS011;5692;48.956;9.200;2022-08-05T05:13:54;209.37;;;199.33;;
11269;SDS011;5692;48.956;9.200;2022-08-05T05:16:21;223.48;;;212.77;;
11269;SDS011;5692;48.956;9.200;2022-08-05T05:18:47;225.23;;;214.43;;
11269;SDS011;5692;48.956;9.200;2022-08-05T05:21:13;222.63;;;211.97;;
11269;SDS011;5692;48.956;9.200;2022-08-05T05:23:39;221.63;;;211.02;;
11269;SDS011;5692;48.956;9.200;2022-08-05T05:26:05;218.57;;;208.13;;
11269;SDS011;5692;48.956;9.200;2022-08-05T05:28:31;214.15;;;203.90;;
11269;SDS011;5692;48.956;9.200;2022-08-05T05:30:59;191.57;;;182.40;;
11269;SDS011;5692;48.956;9.200;2022-08-05T05:33:25;195.77;;;186.40;;
11269;SDS011;5692;48.956;9.200;2022-08-05T05:35:51;200.33;;;190.73;;
11269;SDS011;5692;48.956;9.200;2022-08-05T05:38:17;204.77;;;194.97;;
11269;SDS011;5692;48.956;9.200;2022-08-05T05:40:43;203.77;;;194.00;;
11269;SDS011;5692;48.956;9.200;2022-08-05T05:43:09;206.55;;;196.65;;
11269;SDS011;5692;48.956;9.200;2022-08-05T05:45:35;224.13;;;213.43;;
11269;SDS011;5692;48.956;9.200;2022-08-05T05:48:01;229.57;;;218.57;;
11269;SDS011;5692;48.956;9.200;2022-08-05T05:50:31;216.43;;;206.07;;
11269;SDS011;5692;48.956;9.200;2022-08-05T05:52:57;230.53;;;219.53;;
11269;SDS011;5692;48.956;9.200;2022-08-05T05:55:23;228.93;;;217.97;;
11269;SDS011;5692;48.956;9.200;2022-08-05T05:57:49;225.20;;;214.40;;
11269;SDS011;5692;48.956;9.200;2022-08-05T06:00:17;224.27;;;213.53;;
11269;SDS011;5692;48.956;9.200;2022-08-05T06:02:52;218.60;;;208.13;;
11269;SDS011;5692;48.956;9.200;2022-08-05T06:05:18;237.60;;;226.23;;
11269;SDS011;5692;48.956;9.200;2022-08-05T06:07:45;228.37;;;217.47;;
11269;SDS011;5692;48.956;9.200;2022-08-05T06:10:11;232.80;;;221.67;;
11269;SDS011;5692;48.956;9.200;2022-08-05T06:12:37;234.97;;;223.73;;
11269;SDS011;5692;48.956;9.200;2022-08-05T06:15:04;231.03;;;219.97;;
11269;SDS011;5692;48.956;9.200;2022-08-05T06:17:31;235.90;;;224.60;;
11269;SDS011;5692;48.956;9.200;2022-08-05T06:19:57;242.50;;;230.90;;
11269;SDS011;5692;48.956;9.200;2022-08-05T06:24:52;231.53;;;220.47;;
11269;SDS011;5692;48.956;9.200;2022-08-05T06:27:18;236.73;;;225.43;;
11269;SDS011;5692;48.956;9.200;2022-08-05T06:29:44;230.73;;;219.73;;
11269;SDS011;5692;48.956;9.200;2022-08-05T06:32:10;231.10;;;220.03;;
11269;SDS011;5692;48.956;9.200;2022-08-05T06:34:36;230.50;;;219.50;;
11269;SDS011;5692;48.956;9.200;2022-08-05T06:37:02;239.60;;;228.10;;
11269;SDS011;5692;48.956;9.200;2022-08-05T06:39:28;232.43;;;221.33;;
11269;SDS011;5692;48.956;9.200;2022-08-05T06:41:55;235.63;;;224.37;;
11269;SDS011;5692;48.956;9.200;2022-08-05T06:44:22;221.83;;;211.23;;
11269;SDS011;5692;48.956;9.200;2022-08-05T06:46:50;228.17;;;217.23;;
11269;SDS011;5692;48.956;9.200;2022-08-05T06:49:16;241.67;;;230.07;;
11269;SDS011;5692;48.956;9.200;2022-08-05T06:51:42;246.20;;;234.40;;
11269;SDS011;5692;48.956;9.200;2022-08-05T06:54:08;227.70;;;216.80;;
11269;SDS011;5692;48.956;9.200;2022-08-05T06:56:34;223.83;;;213.13;;
11269;SDS011;5692;48.956;9.200;2022-08-05T06:59:04;249.20;;;237.27;;
11269;SDS011;5692;48.956;9.200;2022-08-05T07:01:30;240.97;;;229.43;;
11269;SDS011;5692;48.956;9.200;2022-08-05T07:03:56;243.57;;;231.93;;
11269;SDS011;5692;48.956;9.200;2022-08-05T07:06:22;239.30;;;227.87;;
11269;SDS011;5692;48.956;9.200;2022-08-05T07:08:49;230.87;;;219.83;;
11269;SDS011;5692;48.956;9.200;2022-08-05T07:11:15;218.53;;;208.07;;
11269;SDS011;5692;48.956;9.200;2022-08-05T07:13:42;238.70;;;227.30;;
11269;SDS011;5692;48.956;9.200;2022-08-05T07:16:27;242.90;;;231.30;;
11269;SDS011;5692;48.956;9.200;2022-08-05T07:19:11;248.63;;;236.73;;
11269;SDS011;5692;48.956;9.200;2022-08-05T07:21:37;247.73;;;235.90;;
11269;SDS011;5692;48.956;9.200;2022-08-05T07:24:03;229.23;;;218.27;;
11269;SDS011;5692;48.956;9.200;2022-08-05T07:26:30;249.37;;;237.43;;
11269;SDS011;5692;48.956;9.200;2022-08-05T07:28:56;257.27;;;244.97;;
11269;SDS011;5692;48.956;9.200;2022-08-05T07:31:22;243.73;;;232.07;;
11269;SDS011;5692;48.956;9.200;2022-08-05T07:33:48;252.23;;;240.17;;
11269;SDS011;5692;48.956;9.200;2022-08-05T07:36:14;222.07;;;211.47;;
11269;SDS011;5692;48.956;9.200;2022-08-05T07:38:40;236.83;;;225.53;;
11269;SDS011;5692;48.956;9.200;2022-08-05T07:41:07;223.00;;;212.33;;
11269;SDS011;5692;48.956;9.200;2022-08-05T07:43:33;239.80;;;228.30;;
11269;SDS011;5692;48.956;9.200;2022-08-05T07:45:59;235.87;;;224.60;;
11269;SDS011;5692;48.956;9.200;2022-08-05T07:48:25;235.07;;;223.83;;
11269;SDS011;5692;48.956;9.200;2022-08-05T07:50:51;249.60;;;237.70;;
11269;SDS011;5692;48.956;9.200;2022-08-05T07:53:20;245.50;;;233.77;;
11269;SDS011;5692;48.956;9.200;2022-08-05T07:55:46;248.73;;;236.83;;
11269;SDS011;5692;48.956;9.200;2022-08-05T07:58:12;268.20;;;255.40;;
11269;SDS011;5692;48.956;9.200;2022-08-05T08:00:38;239.73;;;228.27;;
11269;SDS011;5692;48.956;9.200;2022-08-05T08:03:08;241.10;;;229.57;;
11269;SDS011;5692;48.956;9.200;2022-08-05T08:05:35;230.07;;;219.07;;
11269;SDS011;5692;48.956;9.200;2022-08-05T08:08:01;251.77;;;239.77;;
11269;SDS011;5692;48.956;9.200;2022-08-05T08:10:27;246.30;;;234.53;;
11269;SDS011;5692;48.956;9.200;2022-08-05T08:12:53;237.10;;;225.77;;
11269;SDS011;5692;48.956;9.200;2022-08-05T08:15:19;249.80;;;237.87;;
11269;SDS011;5692;48.956;9.200;2022-08-05T08:17:45;238.70;;;227.30;;
11269;SDS011;5692;48.956;9.200;2022-08-05T08:20:12;221.30;;;210.70;;
11269;SDS011;5692;48.956;9.200;2022-08-05T08:22:38;214.00;;;203.77;;
11269;SDS011;5692;48.956;9.200;2022-08-05T08:25:04;219.47;;;208.97;;
11269;SDS011;5692;48.956;9.200;2022-08-05T08:27:31;236.30;;;225.00;;
11269;SDS011;5692;48.956;9.200;2022-08-05T08:29:57;241.07;;;229.57;;
11269;SDS011;5692;48.956;9.200;2022-08-05T08:32:23;254.43;;;242.27;;
11269;SDS011;5692;48.956;9.200;2022-08-05T08:34:49;276.03;;;262.83;;
11269;SDS011;5692;48.956;9.200;2022-08-05T08:37:16;240.63;;;229.13;;
11269;SDS011;5692;48.956;9.200;2022-08-05T08:39:42;252.70;;;240.60;;
11269;SDS011;5692;48.956;9.200;2022-08-05T08:42:09;231.87;;;220.77;;
11269;SDS011;5692;48.956;9.200;2022-08-05T08:44:35;234.60;;;223.37;;
11269;SDS011;5692;48.956;9.200;2022-08-05T08:47:02;227.27;;;216.40;;
11269;SDS011;5692;48.956;9.200;2022-08-05T08:49:29;238.63;;;227.20;;
11269;SDS011;5692;48.956;9.200;2022-08-05T08:52:18;245.43;;;233.73;;
11269;SDS011;5692;48.956;9.200;2022-08-05T08:54:42;255.50;;;243.30;;
11269;SDS011;5692;48.956;9.200;2022-08-05T08:57:08;253.67;;;241.57;;
11269;SDS011;5692;48.956;9.200;2022-08-05T08:59:35;265.57;;;252.87;;
11269;SDS011;5692;48.956;9.200;2022-08-05T09:02:03;261.90;;;249.37;;
11269;SDS011;5692;48.956;9.200;2022-08-05T09:04:30;252.60;;;240.50;;
11269;SDS011;5692;48.956;9.200;2022-08-05T09:06:56;264.63;;;251.97;;
11269;SDS011;5692;48.956;9.200;2022-08-05T09:09:22;248.20;;;236.30;;
11269;SDS011;5692;48.956;9.200;2022-08-05T09:11:48;251.43;;;239.40;;
11269;SDS011;5692;48.956;9.200;2022-08-05T09:14:14;237.47;;;226.10;;
11269;SDS011;5692;48.956;9.200;2022-08-05T09:16:40;231.07;;;220.00;;
11269;SDS011;5692;48.956;9.200;2022-08-05T09:19:06;257.77;;;245.47;;
11269;SDS011;5692;48.956;9.200;2022-08-05T09:21:33;239.90;;;228.40;;
11269;SDS011;5692;48.956;9.200;2022-08-05T09:24:07;246.57;;;234.77;;
11269;SDS011;5692;48.956;9.200;2022-08-05T09:26:36;258.50;;;246.10;;
11269;SDS011;5692;48.956;9.200;2022-08-05T09:29:05;243.47;;;231.83;;
11269;SDS011;5692;48.956;9.200;2022-08-05T09:31:32;237.03;;;225.70;;
11269;SDS011;5692;48.956;9.200;2022-08-05T09:33:59;247.03;;;235.23;;
11269;SDS011;5692;48.956;9.200;2022-08-05T09:39:05;239.07;;;227.67;;
11269;SDS011;5692;48.956;9.200;2022-08-05T09:41:31;241.73;;;230.17;;
11269;SDS011;5692;48.956;9.200;2022-08-05T09:43:57;260.30;;;247.90;;
11269;SDS011;5692;48.956;9.200;2022-08-05T09:48:50;256.00;;;243.77;;
11269;SDS011;5692;48.956;9.200;2022-08-05T09:51:26;253.30;;;241.17;;
11269;SDS011;5692;48.956;9.200;2022-08-05T09:53:55;245.13;;;233.43;;
11269;SDS011;5692;48.956;9.200;2022-08-05T09:56:28;236.13;;;224.83;;
11269;SDS011;5692;48.956;9.200;2022-08-05T09:58:56;240.00;;;228.50;;
11269;SDS011;5692;48.956;9.200;2022-08-05T10:01:22;230.93;;;219.90;;
11269;SDS011;5692;48.956;9.200;2022-08-05T10:03:55;231.53;;;220.47;;
11269;SDS011;5692;48.956;9.200;2022-08-05T10:06:23;240.50;;;229.00;;
11269;SDS011;5692;48.956;9.200;2022-08-05T10:08:50;247.10;;;235.30;;
11269;SDS011;5692;48.956;9.200;2022-08-05T10:11:16;285.60;;;271.97;;
11269;SDS011;5692;48.956;9.200;2022-08-05T10:13:42;4.80;;;4.47;;
11269;SDS011;5692;48.956;9.200;2022-08-05T10:16:26;5.47;;;5.07;;
11269;SDS011;5692;48.956;9.200;2022-08-05T10:18:52;5.03;;;4.00;;
11269;SDS011;5692;48.956;9.200;2022-08-05T10:21:19;5.43;;;3.97;;
11269;SDS011;5692;48.956;9.200;2022-08-05T10:23:45;8.17;;;3.70;;
11269;SDS011;5692;48.956;9.200;2022-08-05T10:26:12;4.97;;;3.20;;
11269;SDS011;5692;48.956;9.200;2022-08-05T10:28:38;4.83;;;3.70;;
11269;SDS011;5692;48.956;9.200;2022-08-05T10:31:05;7.23;;;5.30;;
11269;SDS011;5692;48.956;9.200;2022-08-05T10:33:33;6.77;;;4.33;;
11269;SDS011;5692;48.956;9.200;2022-08-05T10:36:00;5.57;;;4.40;;
11269;SDS011;5692;48.956;9.200;2022-08-05T10:38:30;6.80;;;5.43;;
11269;SDS011;5692;48.956;9.200;2022-08-05T10:41:17;4.40;;;2.00;;
11269;SDS011;5692;48.956;9.200;2022-08-05T10:43:52;3.80;;;2.50;;
11269;SDS011;5692;48.956;9.200;2022-08-05T10:46:20;5.07;;;2.90;;
11269;SDS011;5692;48.956;9.200;2022-08-05T10:48:47;7.03;;;4.20;;
11269;SDS011;5692;48.956;9.200;2022-08-05T10:51:14;4.97;;;3.27;;
11269;SDS011;5692;48.956;9.200;2022-08-05T10:56:14;8.90;;;3.90;;
11269;SDS011;5692;48.956;9.200;2022-08-05T10:58:47;5.30;;;2.90;;
11269;SDS011;5692;48.956;9.200;2022-08-05T11:01:14;9.20;;;3.73;;
11269;SDS011;5692;48.956;9.200;2022-08-05T11:06:25;4.53;;;4.30;;
11269;SDS011;5692;48.956;9.200;2022-08-05T11:11:36;95.90;;;91.30;;
11269;SDS011;5692;48.956;9.200;2022-08-05T11:14:02;180.20;;;171.57;;
11269;SDS011;5692;48.956;9.200;2022-08-05T11:16:29;200.67;;;191.03;;
11269;SDS011;5692;48.956;9.200;2022-08-05T11:21:40;177.27;;;168.80;;
11269;SDS011;5692;48.956;9.200;2022-08-05T11:24:06;177.97;;;169.47;;
11269;SDS011;5692;48.956;9.200;2022-08-05T11:26:33;173.27;;;164.97;;
11269;SDS011;5692;48.956;9.200;2022-08-05T11:29:02;168.07;;;160.00;;
11269;SDS011;5692;48.956;9.200;2022-08-05T11:31:29;186.70;;;177.77;;
11269;SDS011;5692;48.956;9.200;2022-08-05T11:33:57;170.57;;;162.37;;
11269;SDS011;5692;48.956;9.200;2022-08-05T11:39:06;167.37;;;159.37;;
11269;SDS011;5692;48.956;9.200;2022-08-05T11:41:32;156.43;;;148.93;;
11269;SDS011;5692;48.956;9.200;2022-08-05T11:48:54;172.77;;;164.50;;
11269;SDS011;5692;48.956;9.200;2022-08-05T11:51:21;130.63;;;124.33;;
11269;SDS011;5692;48.956;9.200;2022-08-05T11:53:47;137.43;;;130.83;;
11269;SDS011;5692;48.956;9.200;2022-08-05T11:56:13;129.70;;;123.47;;
11269;SDS011;5692;48.956;9.200;2022-08-05T11:58:40;137.13;;;130.53;;
11269;SDS011;5692;48.956;9.200;2022-08-05T12:01:10;135.63;;;129.13;;
11269;SDS011;5692;48.956;9.200;2022-08-05T12:06:13;147.10;;;140.03;;
11269;SDS011;5692;48.956;9.200;2022-08-05T12:11:05;148.30;;;141.20;;
11269;SDS011;5692;48.956;9.200;2022-08-05T12:13:32;164.30;;;156.40;;
11269;SDS011;5692;48.956;9.200;2022-08-05T12:15:58;192.53;;;183.30;;
11269;SDS011;5692;48.956;9.200;2022-08-05T12:18:31;184.47;;;175.63;;
11269;SDS011;5692;48.956;9.200;2022-08-05T12:21:07;183.67;;;174.87;;
11269;SDS011;5692;48.956;9.200;2022-08-05T12:23:34;179.30;;;170.70;;
11269;SDS011;5692;48.956;9.200;2022-08-05T12:26:00;183.27;;;174.47;;
11269;SDS011;5692;48.956;9.200;2022-08-05T12:28:30;190.83;;;181.73;;
11269;SDS011;5692;48.956;9.200;2022-08-05T12:30:56;189.10;;;180.03;;
11269;SDS011;5692;48.956;9.200;2022-08-05T12:33:23;201.20;;;191.60;;
11269;SDS011;5692;48.956;9.200;2022-08-05T12:35:49;192.10;;;182.90;;
11269;SDS011;5692;48.956;9.200;2022-08-05T12:38:16;191.30;;;182.10;;
11269;SDS011;5692;48.956;9.200;2022-08-05T12:40:42;185.10;;;176.20;;
11269;SDS011;5692;48.956;9.200;2022-08-05T12:43:08;180.13;;;171.53;;
11269;SDS011;5692;48.956;9.200;2022-08-05T12:45:35;177.83;;;169.33;;
11269;SDS011;5692;48.956;9.200;2022-08-05T12:48:13;200.50;;;190.90;;
11269;SDS011;5692;48.956;9.200;2022-08-05T12:50:39;199.93;;;190.37;;
11269;SDS011;5692;48.956;9.200;2022-08-05T12:53:05;186.47;;;177.53;;
11269;SDS011;5692;48.956;9.200;2022-08-05T12:55:32;209.57;;;199.57;;
11269;SDS011;5692;48.956;9.200;2022-08-05T12:57:58;183.00;;;174.23;;
11269;SDS011;5692;48.956;9.200;2022-08-05T13:00:25;188.13;;;179.13;;
11269;SDS011;5692;48.956;9.200;2022-08-05T13:02:52;184.60;;;175.77;;
11269;SDS011;5692;48.956;9.200;2022-08-05T13:05:24;187.00;;;178.03;;
11269;SDS011;5692;48.956;9.200;2022-08-05T13:07:50;184.60;;;175.80;;
11269;SDS011;5692;48.956;9.200;2022-08-05T13:10:16;178.40;;;169.87;;
11269;SDS011;5692;48.956;9.200;2022-08-05T13:12:43;184.23;;;175.43;;
11269;SDS011;5692;48.956;9.200;2022-08-05T13:15:10;194.50;;;185.20;;
11269;SDS011;5692;48.956;9.200;2022-08-05T13:17:36;268.10;;;255.30;;
11269;SDS011;5692;48.956;9.200;2022-08-05T13:20:10;231.43;;;220.37;;
11269;SDS011;5692;48.956;9.200;2022-08-05T13:22:39;237.97;;;226.57;;
11269;SDS011;5692;48.956;9.200;2022-08-05T13:25:07;230.97;;;219.93;;
11269;SDS011;5692;48.956;9.200;2022-08-05T13:30:00;242.00;;;230.40;;
11269;SDS011;5692;48.956;9.200;2022-08-05T13:32:27;250.67;;;238.67;;
11269;SDS011;5692;48.956;9.200;2022-08-05T13:34:53;241.43;;;229.90;;
11269;SDS011;5692;48.956;9.200;2022-08-05T13:37:19;245.20;;;233.50;;
11269;SDS011;5692;48.956;9.200;2022-08-05T13:39:52;228.17;;;217.27;;
11269;SDS011;5692;48.956;9.200;2022-08-05T13:42:18;235.13;;;223.90;;
11269;SDS011;5692;48.956;9.200;2022-08-05T13:44:45;238.93;;;227.50;;
11269;SDS011;5692;48.956;9.200;2022-08-05T13:47:14;243.53;;;231.90;;
11269;SDS011;5692;48.956;9.200;2022-08-05T13:49:41;244.23;;;232.53;;
11269;SDS011;5692;48.956;9.200;2022-08-05T13:54:36;237.90;;;226.50;;
11269;SDS011;5692;48.956;9.200;2022-08-05T13:57:02;240.90;;;229.37;;
11269;SDS011;5692;48.956;9.200;2022-08-05T13:59:28;234.30;;;223.10;;
11269;SDS011;5692;48.956;9.200;2022-08-05T14:01:55;249.63;;;237.70;;
11269;SDS011;5692;48.956;9.200;2022-08-05T14:04:21;255.80;;;243.57;;
11269;SDS011;5692;48.956;9.200;2022-08-05T14:07:06;267.13;;;254.37;;
11269;SDS011;5692;48.956;9.200;2022-08-05T14:09:33;237.93;;;226.57;;
11269;SDS011;5692;48.956;9.200;2022-08-05T14:11:59;253.43;;;241.33;;
11269;SDS011;5692;48.956;9.200;2022-08-05T14:14:25;243.30;;;231.70;;
11269;SDS011;5692;48.956;9.200;2022-08-05T14:16:51;242.70;;;231.10;;
11269;SDS011;5692;48.956;9.200;2022-08-05T14:19:17;240.23;;;228.73;;
11269;SDS011;5692;48.956;9.200;2022-08-05T14:21:43;250.17;;;238.20;;
11269;SDS011;5692;48.956;9.200;2022-08-05T14:24:09;247.30;;;235.50;;
11269;SDS011;5692;48.956;9.200;2022-08-05T14:26:36;247.53;;;235.70;;
11269;SDS011;5692;48.956;9.200;2022-08-05T14:29:02;257.23;;;244.93;;
11269;SDS011;5692;48.956;9.200;2022-08-05T14:31:29;245.20;;;233.50;;
11269;SDS011;5692;48.956;9.200;2022-08-05T14:33:55;257.23;;;244.93;;
11269;SDS011;5692;48.956;9.200;2022-08-05T14:36:21;267.80;;;255.00;;
11269;SDS011;5692;48.956;9.200;2022-08-05T14:38:48;271.03;;;258.07;;
11269;SDS011;5692;48.956;9.200;2022-08-05T14:41:14;247.10;;;235.30;;
11269;SDS011;5692;48.956;9.200;2022-08-05T14:43:40;252.47;;;240.37;;
11269;SDS011;5692;48.956;9.200;2022-08-05T14:46:06;249.50;;;237.57;;
11269;SDS011;5692;48.956;9.200;2022-08-05T14:48:32;266.83;;;254.07;;
11269;SDS011;5692;48.956;9.200;2022-08-05T14:50:58;256.27;;;244.00;;
11269;SDS011;5692;48.956;9.200;2022-08-05T14:53:24;249.73;;;237.83;;
11269;SDS011;5692;48.956;9.200;2022-08-05T14:55:50;270.67;;;257.73;;
11269;SDS011;5692;48.956;9.200;2022-08-05T14:58:16;259.73;;;247.33;;
11269;SDS011;5692;48.956;9.200;2022-08-05T15:00:42;251.60;;;239.57;;